createdAt,value
2022-10-08T00:09:29.277Z,97358.45
2022-10-08T00:19:33.839Z,97349.59
2022-10-08T00:29:37.601Z,97336.01
2022-10-08T00:39:41.791Z,97324.30
2022-10-08T00:49:51.695Z,97316.48
2022-10-08T00:59:56.820Z,97301.70
2022-10-08T01:10:23.025Z,97295.05
2022-10-08T01:20:32.683Z,97293.45
2022-10-08T01:30:40.708Z,97279.48
2022-10-08T01:40:47.583Z,97270.88
2022-10-08T01:50:51.248Z,97268.29
2022-10-08T02:00:57.291Z,97259.20
2022-10-08T02:11:01.052Z,97257.59
2022-10-08T02:21:34.797Z,97255.85
2022-10-08T02:31:42.064Z,97254.92
2022-10-08T02:41:52.359Z,97254.85
2022-10-08T02:52:02.378Z,97249.66
2022-10-08T03:02:06.691Z,97244.27
2022-10-08T03:12:10.824Z,97243.55
2022-10-08T03:22:14.489Z,97243.48
2022-10-08T03:32:18.051Z,97239.86
2022-10-08T03:42:21.718Z,97239.68
2022-10-08T03:52:25.397Z,97236.00
2022-10-08T04:02:29.219Z,97235.11
2022-10-08T04:12:32.916Z,97230.09
2022-10-08T04:22:36.405Z,97225.52
2022-10-08T04:32:40.270Z,97221.35
2022-10-08T04:42:44.692Z,97218.41
2022-10-08T04:52:49.443Z,97221.23
2022-10-08T05:02:53.752Z,97227.14
2022-10-08T05:12:57.583Z,97229.67
2022-10-08T05:23:01.567Z,97231.73
2022-10-08T05:33:05.435Z,97224.23
2022-10-08T05:43:09.417Z,97223.46
2022-10-08T05:53:13.420Z,97231.19
2022-10-08T06:03:17.160Z,97235.61
2022-10-08T06:13:22.130Z,97240.77
2022-10-08T06:23:25.922Z,97241.15
2022-10-08T06:33:30.383Z,97251.05
2022-10-08T06:43:34.766Z,97247.39
2022-10-08T06:53:39.680Z,97241.02
2022-10-08T07:03:44.585Z,97239.86
2022-10-08T07:13:48.844Z,97231.52
2022-10-08T07:23:54.398Z,97227.42
2022-10-08T07:34:00.361Z,97221.54
2022-10-08T07:44:06.066Z,97218.77
2022-10-08T07:54:14.951Z,97217.92
2022-10-08T08:04:18.727Z,97208.91
2022-10-08T08:14:22.591Z,97207.98
2022-10-08T08:24:26.057Z,97205.35
2022-10-08T08:34:30.842Z,97195.63
2022-10-08T08:44:38.908Z,97185.52
2022-10-08T08:54:46.674Z,97174.73
2022-10-08T09:04:57.488Z,97164.63
2022-10-08T09:15:02.388Z,97163.38
2022-10-08T09:25:20.815Z,97164.77
2022-10-08T09:35:25.802Z,97162.72
2022-10-08T09:45:39.274Z,97157.11
2022-10-08T09:55:52.458Z,97151.77
2022-10-08T10:05:59.597Z,97136.86
2022-10-08T10:16:26.350Z,97128.87
2022-10-08T10:26:36.324Z,97114.02
2022-10-08T10:37:02.699Z,97101.19
2022-10-08T10:47:09.539Z,97089.61
2022-10-08T10:57:35.508Z,97074.10
2022-10-08T11:08:08.067Z,97060.77
2022-10-08T11:18:24.316Z,97046.22
2022-10-08T11:29:01.334Z,97040.60
2022-10-08T11:39:19.404Z,97039.46
2022-10-08T11:49:25.684Z,97029.70
2022-10-08T11:59:37.174Z,97017.97
2022-10-08T12:10:05.520Z,97009.98
2022-10-08T12:20:23.321Z,97002.98
2022-10-08T12:30:46.810Z,97000.85
2022-10-08T12:41:01.133Z,96995.19
2022-10-08T12:51:22.212Z,96983.73
2022-10-08T13:01:26.979Z,96977.97
2022-10-08T13:11:31.026Z,96983.59
2022-10-08T13:21:38.255Z,96979.21
2022-10-08T13:31:42.243Z,96977.54
2022-10-08T13:41:52.435Z,96976.26
2022-10-08T13:51:59.436Z,96983.02
2022-10-08T14:02:03.950Z,96979.36
2022-10-08T14:12:09.685Z,96977.13
2022-10-08T14:22:15.062Z,96970.57
2022-10-08T14:32:18.905Z,96967.66
2022-10-08T14:42:22.462Z,96965.16
2022-10-08T14:52:26.591Z,96964.38
2022-10-08T15:02:30.717Z,96969.11
2022-10-08T15:12:35.535Z,96973.58
2022-10-08T15:22:39.487Z,96979.86
2022-10-08T15:32:43.357Z,96987.42
2022-10-08T15:42:52.790Z,97001.30
2022-10-08T15:52:57.068Z,97016.08
2022-10-08T16:03:01.001Z,97029.42
2022-10-08T16:13:05.185Z,97038.30
2022-10-08T16:23:09.885Z,97048.04
2022-10-08T16:33:13.958Z,97055.44
2022-10-08T16:43:17.708Z,97065.35
2022-10-08T16:53:21.599Z,97069.20
2022-10-08T17:03:25.353Z,97083.94
2022-10-08T17:13:29.238Z,97090.11
2022-10-08T17:23:37.396Z,97094.65
2022-10-08T17:33:43.231Z,97105.18
2022-10-08T17:43:48.642Z,97111.70
2022-10-08T17:53:54.837Z,97115.16
2022-10-08T18:04:04.986Z,97121.52
2022-10-08T18:14:09.224Z,97134.23
2022-10-08T18:24:14.332Z,97134.23
2022-10-08T18:34:19.291Z,97143.52
2022-10-08T18:44:25.951Z,97146.52
2022-10-08T18:54:33.310Z,97152.75
2022-10-08T19:04:40.564Z,97151.30
2022-10-08T19:14:45.027Z,97158.17
2022-10-08T19:24:49.632Z,97172.98
2022-10-08T19:34:54.164Z,97186.63
2022-10-08T19:44:59.121Z,97200.59
2022-10-08T19:55:06.285Z,97209.23
2022-10-08T20:05:10.475Z,97230.63
2022-10-08T20:15:14.602Z,97244.70
2022-10-08T20:25:20.838Z,97247.89
2022-10-08T20:35:24.817Z,97260.27
2022-10-08T20:45:28.894Z,97265.52
2022-10-08T20:55:32.864Z,97273.87
2022-10-08T21:05:43.387Z,97278.50
2022-10-08T21:15:49.174Z,97289.91
2022-10-08T21:26:14.673Z,97292.13
2022-10-08T21:36:27.431Z,97291.30
2022-10-08T21:46:34.317Z,97294.04
2022-10-08T21:56:39.835Z,97297.04
2022-10-08T22:06:46.667Z,97294.40
2022-10-08T22:16:51.007Z,97294.02
2022-10-08T22:26:54.882Z,97301.29
2022-10-08T22:36:58.793Z,97306.73
2022-10-08T22:47:02.535Z,97311.33
2022-10-08T22:57:06.264Z,97310.44
2022-10-08T23:07:10.039Z,97312.79
2022-10-08T23:17:13.709Z,97324.14
2022-10-08T23:27:17.186Z,97334.52
2022-10-08T23:37:20.644Z,97341.10
2022-10-08T23:47:24.507Z,97352.88
2022-10-08T23:57:28.171Z,97375.23
